Time;durP1;ratioP1;P1;durP2;ratioP2;P2;SDS_P1;SDS_P2;PMS_P1;PMS_P2;Temp;Humidity;BMP_temperature;BMP_pressure;BME280_temperature;BME280_humidity;BME280_pressure;Samples;Min_cycle;Max_cycle;Signal;HPM_P1;HPM_P2
2023/06/14 00:01:28;;;;;;;7.88;7.10;;;23.40;84.90;;;;;;6206476;28;88984;-67
2023/06/14 00:04:30;;;;;;;7.50;6.70;;;23.40;84.90;;;;;;6204282;28;89500;-67
2023/06/14 00:07:42;;;;;;;8.05;7.25;;;23.50;84.90;;;;;;6199768;28;90512;-67
2023/06/14 00:10:44;;;;;;;7.63;6.90;;;23.40;84.70;;;;;;6204606;28;89078;-68
2023/06/14 00:13:46;;;;;;;7.10;6.45;;;23.40;84.80;;;;;;6193125;28;88375;-67
2023/06/14 00:16:48;;;;;;;7.57;6.88;;;23.50;84.90;;;;;;6191101;28;89337;-67
2023/06/14 00:19:50;;;;;;;6.63;6.03;;;23.40;84.80;;;;;;6205140;28;89172;-67
2023/06/14 00:22:53;;;;;;;7.32;6.63;;;23.40;84.90;;;;;;6201243;28;90031;-67
2023/06/14 00:25:56;;;;;;;6.90;6.30;;;23.40;84.80;;;;;;6200058;28;89138;-67
2023/06/14 00:28:57;;;;;;;7.30;6.60;;;23.40;84.80;;;;;;6206037;28;89372;-67
2023/06/14 00:32:00;;;;;;;8.95;7.72;;;23.50;84.90;;;;;;6192238;28;89112;-67
2023/06/14 00:35:02;;;;;;;7.47;6.78;;;23.50;84.90;;;;;;6202935;28;89146;-67
2023/06/14 00:38:05;;;;;;;7.10;6.40;;;23.40;84.90;;;;;;6199311;28;89063;-67
2023/06/14 00:41:07;;;;;;;7.30;6.60;;;23.40;84.90;;;;;;6194380;28;89095;-67
2023/06/14 00:44:09;;;;;;;7.53;6.82;;;23.40;84.90;;;;;;6204131;28;88376;-67
2023/06/14 00:47:11;;;;;;;7.20;6.45;;;23.40;84.90;;;;;;6198780;28;88997;-67
2023/06/14 00:50:13;;;;;;;7.63;6.93;;;23.40;85.00;;;;;;6203076;28;88956;-67
2023/06/14 00:53:18;;;;;;;6.20;5.60;;;23.40;85.90;;;;;;6201543;28;89868;-67
2023/06/14 00:56:20;;;;;;;6.22;5.63;;;23.40;85.00;;;;;;6209234;28;89017;-67
2023/06/14 00:59:22;;;;;;;7.90;7.07;;;23.40;85.00;;;;;;6208642;28;89168;-67
2023/06/14 01:02:25;;;;;;;7.45;6.70;;;23.40;85.00;;;;;;6199300;28;89304;-67
2023/06/14 01:05:27;;;;;;;7.50;6.80;;;23.40;84.90;;;;;;6210436;28;89055;-67
2023/06/14 01:08:43;;;;;;;6.68;6.07;;;23.40;84.90;;;;;;6210481;28;89038;-67
2023/06/14 01:11:52;;;;;;;6.95;6.25;;;23.40;84.90;;;;;;6210200;28;89276;-67
2023/06/14 01:14:56;;;;;;;6.70;6.10;;;23.40;85.00;;;;;;6198841;28;87216;-67
2023/06/14 01:18:02;;;;;;;6.28;5.68;;;23.40;84.90;;;;;;6203657;28;89344;-67
2023/06/14 01:21:05;;;;;;;7.43;6.72;;;23.40;85.00;;;;;;6197000;28;89933;-67
2023/06/14 01:24:09;;;;;;;7.15;6.45;;;23.40;85.00;;;;;;6206208;28;90029;-67
2023/06/14 01:27:12;;;;;;;6.90;6.28;;;23.40;85.00;;;;;;6204732;28;89082;-67
2023/06/14 01:30:14;;;;;;;6.80;6.10;;;23.40;85.00;;;;;;6205291;28;88156;-67
2023/06/14 01:33:20;;;;;;;7.32;6.63;;;23.40;85.00;;;;;;6209470;28;89274;-67
2023/06/14 01:36:23;;;;;;;6.60;6.00;;;23.40;85.00;;;;;;6205939;28;88387;-67
2023/06/14 01:39:27;;;;;;;6.70;6.07;;;23.40;85.00;;;;;;6208649;28;89418;-67
2023/06/14 01:42:29;;;;;;;7.03;6.32;;;23.40;85.10;;;;;;6208411;28;89053;-67
2023/06/14 01:45:31;;;;;;;6.57;5.90;;;23.40;85.10;;;;;;6200295;28;88667;-67
2023/06/14 01:48:34;;;;;;;6.82;6.15;;;23.40;85.10;;;;;;6197497;28;89530;-67
2023/06/14 01:51:36;;;;;;;6.70;6.10;;;23.40;85.10;;;;;;6208828;28;90128;-67
2023/06/14 01:54:42;;;;;;;6.80;6.20;;;23.40;85.10;;;;;;6195554;28;88953;-67
2023/06/14 01:57:45;;;;;;;6.82;6.13;;;23.40;85.00;;;;;;6208737;28;89041;-67
2023/06/14 02:00:47;;;;;;;6.30;5.70;;;23.40;85.00;;;;;;6201903;28;87997;-67
2023/06/14 02:03:51;;;;;;;6.30;5.70;;;23.40;85.00;;;;;;6208329;28;89043;-67
2023/06/14 02:06:53;;;;;;;6.18;5.57;;;23.40;85.00;;;;;;6207632;28;89044;-67
2023/06/14 02:09:56;;;;;;;6.25;5.65;;;23.40;85.00;;;;;;6207070;28;89115;-67
2023/06/14 02:12:58;;;;;;;5.82;5.32;;;23.40;85.10;;;;;;6208260;28;89473;-67
2023/06/14 02:16:00;;;;;;;6.30;5.70;;;23.40;85.10;;;;;;6195241;28;88452;-67
2023/06/14 02:19:02;;;;;;;6.15;5.57;;;23.40;85.10;;;;;;6195150;28;89494;-67
2023/06/14 02:22:04;;;;;;;6.30;5.70;;;23.40;85.10;;;;;;6198489;28;89077;-67
2023/06/14 02:25:09;;;;;;;6.32;5.72;;;23.40;85.10;;;;;;6198325;28;90031;-67
2023/06/14 02:28:11;;;;;;;6.60;6.00;;;23.40;85.10;;;;;;6204536;28;89535;-67
2023/06/14 02:31:13;;;;;;;6.35;5.75;;;23.40;85.10;;;;;;6204452;28;89250;-67
2023/06/14 02:34:16;;;;;;;6.68;5.97;;;23.40;85.20;;;;;;6207318;28;89029;-67
2023/06/14 02:37:18;;;;;;;6.20;5.60;;;23.40;85.20;;;;;;6207362;28;89430;-67
2023/06/14 02:40:22;;;;;;;6.20;5.60;;;23.40;85.20;;;;;;6195063;28;88973;-67
2023/06/14 02:43:24;;;;;;;6.40;5.80;;;23.40;85.30;;;;;;6207240;28;89140;-67
2023/06/14 02:46:26;;;;;;;6.57;5.97;;;23.40;85.30;;;;;;6204216;28;88331;-67
2023/06/14 02:49:28;;;;;;;6.25;5.65;;;23.40;85.20;;;;;;6194947;28;89059;-67
2023/06/14 02:52:30;;;;;;;6.10;5.60;;;23.40;85.20;;;;;;6199745;28;89018;-67
2023/06/14 02:55:33;;;;;;;6.50;5.90;;;23.40;85.20;;;;;;6206520;28;89181;-67
2023/06/14 02:58:37;;;;;;;6.20;5.60;;;23.40;85.20;;;;;;6207964;28;89127;-67
2023/06/14 03:01:39;;;;;;;6.03;5.45;;;23.40;85.10;;;;;;6205514;28;89062;-67
2023/06/14 03:04:43;;;;;;;6.82;6.13;;;23.40;85.20;;;;;;6207786;28;89039;-67
2023/06/14 03:07:47;;;;;;;6.25;5.65;;;23.40;85.20;;;;;;6207526;28;88902;-67
2023/06/14 03:10:50;;;;;;;7.25;6.55;;;23.40;85.20;;;;;;6207045;28;89194;-67
2023/06/14 03:13:53;;;;;;;6.80;6.20;;;23.40;85.20;;;;;;6207911;28;88975;-67
2023/06/14 03:16:56;;;;;;;6.93;6.22;;;23.40;85.20;;;;;;6206340;28;88616;-67
2023/06/14 03:19:58;;;;;;;6.97;6.28;;;23.40;85.30;;;;;;6206705;28;89197;-67
2023/06/14 03:23:02;;;;;;;7.38;6.68;;;23.40;85.20;;;;;;6206936;28;89081;-67
2023/06/14 03:26:05;;;;;;;7.05;6.40;;;23.40;85.40;;;;;;6205612;28;88916;-67
2023/06/14 03:29:07;;;;;;;6.50;5.90;;;23.40;85.30;;;;;;6207767;28;89176;-67
2023/06/14 03:32:10;;;;;;;6.07;5.50;;;23.30;85.20;;;;;;6205917;28;89062;-67
2023/06/14 03:35:16;;;;;;;5.93;5.22;;;23.40;85.30;;;;;;6206592;28;89118;-67
2023/06/14 03:38:18;;;;;;;6.53;5.93;;;23.30;85.30;;;;;;6191315;28;89159;-67
2023/06/14 03:41:22;;;;;;;7.10;6.40;;;23.30;85.30;;;;;;6202514;28;88977;-67
2023/06/14 03:44:24;;;;;;;7.40;6.70;;;23.40;85.30;;;;;;6206273;28;89093;-66
2023/06/14 03:47:26;;;;;;;6.32;5.65;;;23.40;85.30;;;;;;6203833;28;88480;-67
2023/06/14 03:50:28;;;;;;;7.10;6.40;;;23.40;85.20;;;;;;6196163;28;89057;-67
2023/06/14 03:53:30;;;;;;;6.68;6.05;;;23.30;85.20;;;;;;6200457;28;89131;-67
2023/06/14 03:56:34;;;;;;;6.75;6.15;;;23.30;85.20;;;;;;6203965;28;89901;-67
2023/06/14 03:59:36;;;;;;;6.90;6.20;;;23.40;85.30;;;;;;6205508;28;89136;-67
2023/06/14 04:02:38;;;;;;;7.35;6.65;;;23.30;85.30;;;;;;6205539;28;88857;-66
2023/06/14 04:05:41;;;;;;;7.65;6.88;;;23.40;85.40;;;;;;6205710;28;89060;-67
2023/06/14 04:08:45;;;;;;;7.95;7.15;;;23.30;85.30;;;;;;6195011;28;88998;-67
2023/06/14 04:11:48;;;;;;;7.22;6.53;;;23.30;85.30;;;;;;6206327;28;88981;-67
2023/06/14 04:14:51;;;;;;;7.45;6.75;;;23.30;86.20;;;;;;6204729;28;89078;-67
2023/06/14 04:17:57;;;;;;;7.40;6.70;;;23.40;85.40;;;;;;6206767;28;88265;-67
2023/06/14 04:20:59;;;;;;;7.18;6.47;;;23.30;85.40;;;;;;6195960;28;88858;-67
2023/06/14 04:24:01;;;;;;;7.03;6.38;;;23.30;85.50;;;;;;6204475;28;89011;-67
2023/06/14 04:27:06;;;;;;;7.55;6.80;;;23.30;85.50;;;;;;6201306;28;90100;-67
2023/06/14 04:30:09;;;;;;;7.43;6.72;;;23.30;85.50;;;;;;6200914;28;89022;-67
2023/06/14 04:33:11;;;;;;;7.43;6.72;;;23.30;85.50;;;;;;6200189;28;89041;-67
2023/06/14 04:36:17;;;;;;;7.45;6.75;;;23.40;85.70;;;;;;6202172;28;89051;-67
2023/06/14 04:39:20;;;;;;;7.40;6.70;;;23.40;85.70;;;;;;6200816;28;88986;-67
2023/06/14 04:42:24;;;;;;;8.02;7.22;;;23.40;85.90;;;;;;6202056;28;89027;-67
2023/06/14 04:45:31;;;;;;;7.82;7.03;;;23.40;85.80;;;;;;6205775;28;89257;-67
2023/06/14 04:48:33;;;;;;;7.35;6.65;;;23.40;85.90;;;;;;6205220;28;89162;-67
2023/06/14 04:51:36;;;;;;;6.97;6.32;;;23.30;85.90;;;;;;6205703;28;89069;-67
2023/06/14 04:54:38;;;;;;;7.20;6.50;;;23.40;85.90;;;;;;6198105;28;88930;-67
2023/06/14 04:57:42;;;;;;;7.45;6.75;;;23.40;86.00;;;;;;6203697;28;89956;-68
2023/06/14 05:00:44;;;;;;;7.35;6.60;;;23.40;85.90;;;;;;6205331;28;89116;-66
2023/06/14 05:03:48;;;;;;;7.20;6.60;;;23.40;85.90;;;;;;6205411;28;89076;-67
2023/06/14 05:06:50;;;;;;;6.90;6.20;;;23.40;86.00;;;;;;6204043;28;88998;-66
2023/06/14 05:09:52;;;;;;;7.22;6.53;;;23.40;86.10;;;;;;6195254;28;87969;-67
2023/06/14 05:12:56;;;;;;;6.90;6.30;;;23.40;86.00;;;;;;6200935;28;89089;-67
2023/06/14 05:15:58;;;;;;;6.78;6.18;;;23.40;86.00;;;;;;6204575;28;88253;-66
2023/06/14 05:19:01;;;;;;;6.82;6.20;;;23.40;86.00;;;;;;6204881;28;87203;-67
2023/06/14 05:22:03;;;;;;;7.25;6.50;;;23.40;85.90;;;;;;6200358;28;89280;-67
2023/06/14 05:25:06;;;;;;;6.55;5.95;;;23.40;85.90;;;;;;6198616;28;89519;-67
2023/06/14 05:28:09;;;;;;;7.15;6.45;;;23.40;85.90;;;;;;6203354;28;90078;-67
2023/06/14 05:31:11;;;;;;;6.82;6.22;;;23.40;86.00;;;;;;6196628;28;89189;-66
2023/06/14 05:34:13;;;;;;;7.65;6.85;;;23.40;86.00;;;;;;6205502;28;89086;-67
2023/06/14 05:37:15;;;;;;;7.28;6.50;;;23.40;85.90;;;;;;6204849;28;89012;-67
2023/06/14 05:40:18;;;;;;;6.80;6.20;;;23.40;85.90;;;;;;6203951;28;89152;-67
2023/06/14 05:43:21;;;;;;;6.60;6.00;;;23.40;85.90;;;;;;6205912;28;89136;-66
2023/06/14 05:46:25;;;;;;;7.53;6.75;;;23.40;85.90;;;;;;6207203;28;89371;-67
2023/06/14 05:49:27;;;;;;;7.00;6.30;;;23.40;85.90;;;;;;6209499;28;88587;-67
2023/06/14 05:52:29;;;;;;;6.65;6.05;;;23.40;85.90;;;;;;6209536;28;89170;-67
2023/06/14 05:55:31;;;;;;;7.22;6.53;;;23.40;85.80;;;;;;6208037;28;89471;-67
2023/06/14 05:58:34;;;;;;;6.85;6.25;;;23.40;85.80;;;;;;6207174;28;89912;-67
2023/06/14 06:01:37;;;;;;;6.93;6.20;;;23.50;85.90;;;;;;6207843;28;87907;-67
2023/06/14 06:04:39;;;;;;;6.43;5.82;;;23.50;85.80;;;;;;6201376;28;89153;-67
2023/06/14 06:07:41;;;;;;;7.05;6.40;;;23.50;85.90;;;;;;6202598;28;88284;-67
2023/06/14 06:10:43;;;;;;;6.93;6.22;;;23.40;85.90;;;;;;6201597;28;90121;-67
2023/06/14 06:13:47;;;;;;;7.00;6.30;;;23.50;85.90;;;;;;6201633;28;87984;-67
2023/06/14 06:16:49;;;;;;;6.57;5.97;;;23.50;85.90;;;;;;6205325;28;88250;-67
2023/06/14 06:19:51;;;;;;;7.22;6.53;;;23.50;85.80;;;;;;6207270;28;89085;-67
2023/06/14 06:22:53;;;;;;;6.63;5.97;;;23.50;85.90;;;;;;6208462;28;88306;-67
2023/06/14 06:25:55;;;;;;;6.80;6.20;;;23.50;85.90;;;;;;6209228;28;88779;-67
2023/06/14 06:28:58;;;;;;;6.78;6.10;;;23.50;85.90;;;;;;6206797;28;88900;-67
2023/06/14 06:32:00;;;;;;;7.03;6.32;;;23.50;85.90;;;;;;6208083;28;89365;-67
2023/06/14 06:35:03;;;;;;;7.85;6.43;;;23.50;85.80;;;;;;6206975;28;88999;-67
2023/06/14 06:38:05;;;;;;;7.15;6.45;;;23.50;85.80;;;;;;6205596;28;88959;-67
2023/06/14 06:41:07;;;;;;;6.90;6.28;;;23.40;85.70;;;;;;6206848;28;88073;-67
2023/06/14 06:44:10;;;;;;;7.30;6.30;;;23.40;85.80;;;;;;6206531;28;89111;-67
2023/06/14 06:47:12;;;;;;;7.22;6.28;;;23.50;85.90;;;;;;6196769;28;89060;-67
2023/06/14 06:50:15;;;;;;;6.57;5.97;;;23.50;85.90;;;;;;6209516;28;88317;-67
2023/06/14 06:53:18;;;;;;;6.60;6.00;;;23.50;85.90;;;;;;6206602;28;89484;-67
2023/06/14 06:56:21;;;;;;;6.95;6.25;;;23.40;85.80;;;;;;6206989;28;89437;-67
2023/06/14 06:59:25;;;;;;;6.45;5.85;;;23.40;85.80;;;;;;6205631;28;90056;-67
2023/06/14 07:02:30;;;;;;;6.30;5.70;;;23.40;85.80;;;;;;6204228;28;89017;-67
2023/06/14 07:05:32;;;;;;;6.35;5.75;;;23.50;85.90;;;;;;6194910;28;89141;-67
2023/06/14 07:08:35;;;;;;;7.78;6.28;;;23.50;85.90;;;;;;6205612;28;87937;-67
2023/06/14 07:11:37;;;;;;;7.10;6.13;;;23.50;85.90;;;;;;6206342;28;89048;-67
2023/06/14 07:14:41;;;;;;;6.88;6.18;;;23.50;85.90;;;;;;6195987;28;89195;-67
2023/06/14 07:17:45;;;;;;;6.43;5.72;;;23.50;85.90;;;;;;6207353;28;88597;-67
2023/06/14 07:20:48;;;;;;;6.13;5.55;;;23.50;85.90;;;;;;6198057;28;88956;-67
2023/06/14 07:23:50;;;;;;;6.72;6.03;;;23.50;85.90;;;;;;6204317;28;89453;-67
2023/06/14 07:26:52;;;;;;;6.55;5.95;;;23.50;85.90;;;;;;6200120;28;89096;-67
2023/06/14 07:29:55;;;;;;;6.07;5.47;;;23.50;86.00;;;;;;6202739;28;90307;-67
2023/06/14 07:32:57;;;;;;;6.20;5.60;;;23.50;86.00;;;;;;6206486;28;89105;-67
2023/06/14 07:35:59;;;;;;;6.90;6.20;;;23.50;86.10;;;;;;6204808;28;89503;-67
2023/06/14 07:39:03;;;;;;;6.68;5.38;;;23.50;86.00;;;;;;6196260;28;89062;-67
2023/06/14 07:42:06;;;;;;;6.30;5.57;;;23.50;86.00;;;;;;6201293;28;89193;-67
2023/06/14 07:45:10;;;;;;;6.30;5.70;;;23.50;86.00;;;;;;6201133;28;89070;-67
2023/06/14 07:48:12;;;;;;;5.95;5.35;;;23.50;86.00;;;;;;6206431;28;89203;-67
2023/06/14 07:51:14;;;;;;;5.93;5.30;;;23.50;86.00;;;;;;6206983;28;88439;-67
2023/06/14 07:54:17;;;;;;;6.40;5.80;;;23.50;86.10;;;;;;6206601;28;89532;-67
2023/06/14 07:57:20;;;;;;;6.05;5.45;;;23.50;86.00;;;;;;6207322;28;89134;-67
2023/06/14 08:00:23;;;;;;;6.45;5.85;;;23.50;86.10;;;;;;6205152;28;90000;-67
2023/06/14 08:03:26;;;;;;;6.43;5.82;;;23.50;86.10;;;;;;6204651;28;89085;-67
2023/06/14 08:06:28;;;;;;;5.68;5.18;;;23.50;86.10;;;;;;6206010;28;89055;-67
2023/06/14 08:09:30;;;;;;;5.95;5.38;;;23.50;86.10;;;;;;6202944;28;89103;-67
2023/06/14 08:12:32;;;;;;;5.93;5.32;;;23.50;86.10;;;;;;6205801;28;88920;-67
2023/06/14 08:15:36;;;;;;;5.90;5.30;;;23.50;86.20;;;;;;6206118;28;89089;-67
2023/06/14 08:18:38;;;;;;;5.68;5.18;;;23.50;86.10;;;;;;6199927;28;88024;-67
2023/06/14 08:21:39;;;;;;;5.82;5.32;;;23.50;86.10;;;;;;6199492;28;88371;-67
2023/06/14 08:24:42;;;;;;;7.32;6.07;;;23.50;86.10;;;;;;6204115;28;88981;-67
2023/06/14 08:27:44;;;;;;;6.03;5.50;;;23.50;86.10;;;;;;6195466;28;87762;-67
2023/06/14 08:30:48;;;;;;;6.15;5.55;;;23.50;86.10;;;;;;6193767;28;90126;-67
2023/06/14 08:33:50;;;;;;;5.70;5.18;;;23.50;86.10;;;;;;6204990;28;89450;-67
2023/06/14 08:36:52;;;;;;;5.82;5.22;;;23.50;86.10;;;;;;6204870;28;88952;-67
2023/06/14 08:39:53;;;;;;;6.55;5.93;;;23.50;86.10;;;;;;6205791;28;89165;-67
2023/06/14 08:42:56;;;;;;;6.07;5.38;;;23.50;86.10;;;;;;6192913;28;89079;-68
2023/06/14 08:46:03;;;;;;;6.22;5.63;;;23.50;86.10;;;;;;6205941;28;89077;-67
2023/06/14 08:49:07;;;;;;;6.03;5.45;;;23.50;86.10;;;;;;6204975;28;89145;-67
2023/06/14 08:52:12;;;;;;;5.78;5.28;;;23.50;86.10;;;;;;6205356;28;87389;-67
2023/06/14 08:55:15;;;;;;;5.63;5.13;;;23.40;86.00;;;;;;6205159;28;87677;-67
2023/06/14 08:58:17;;;;;;;5.93;5.15;;;23.50;86.10;;;;;;6204344;28;89126;-67
2023/06/14 09:01:21;;;;;;;6.03;5.43;;;23.50;86.10;;;;;;6203959;28;90095;-67
2023/06/14 09:04:24;;;;;;;5.65;5.05;;;23.50;86.10;;;;;;6205015;28;89326;-67
2023/06/14 09:07:26;;;;;;;6.00;5.40;;;23.50;86.20;;;;;;6205418;28;88765;-67
2023/06/14 09:10:29;;;;;;;6.22;5.63;;;23.50;86.10;;;;;;6205795;28;89376;-67
2023/06/14 09:13:31;;;;;;;6.70;5.85;;;23.50;86.10;;;;;;6196001;28;89014;-67
2023/06/14 09:16:35;;;;;;;5.75;5.25;;;23.50;86.10;;;;;;6207876;28;89264;-66
2023/06/14 09:19:37;;;;;;;5.85;5.10;;;23.40;85.90;;;;;;6209756;28;89090;-67
2023/06/14 09:22:39;;;;;;;5.65;5.13;;;23.50;86.10;;;;;;6197578;28;88507;-67
2023/06/14 09:25:44;;;;;;;6.03;5.43;;;23.50;86.10;;;;;;6209523;28;89165;-67
2023/06/14 09:28:47;;;;;;;5.75;5.20;;;23.50;86.10;;;;;;6208545;28;87868;-67
2023/06/14 09:31:50;;;;;;;6.65;5.38;;;23.50;86.10;;;;;;6197751;28;90170;-67
2023/06/14 09:34:53;;;;;;;6.63;5.72;;;23.50;86.00;;;;;;6208265;28;89183;-67
2023/06/14 09:37:56;;;;;;;5.28;4.78;;;23.40;85.80;;;;;;6199609;28;89147;-67
2023/06/14 09:40:59;;;;;;;5.40;4.90;;;23.50;86.80;;;;;;6194867;28;87973;-67
2023/06/14 09:44:03;;;;;;;5.80;5.30;;;23.50;86.10;;;;;;6208400;28;88039;-67
2023/06/14 09:47:07;;;;;;;5.60;5.10;;;23.50;86.10;;;;;;6196090;28;89434;-67
2023/06/14 09:50:09;;;;;;;6.13;5.53;;;23.50;85.90;;;;;;6208111;28;88433;-67
2023/06/14 09:53:12;;;;;;;6.00;5.43;;;23.40;85.90;;;;;;6209134;28;87020;-67
2023/06/14 09:56:15;;;;;;;6.05;5.45;;;23.40;85.90;;;;;;6208922;28;89216;-67
2023/06/14 09:59:26;;;;;;;6.60;5.40;;;23.50;85.90;;;;;;6199078;28;89130;-67
2023/06/14 10:02:35;;;;;;;5.40;4.90;;;23.40;85.70;;;;;;6206565;28;90105;-67
2023/06/14 10:05:38;;;;;;;5.60;5.07;;;23.40;85.90;;;;;;6208026;28;89062;-66
2023/06/14 10:08:41;;;;;;;5.75;5.13;;;23.50;85.90;;;;;;6199588;28;89070;-67
2023/06/14 10:11:44;;;;;;;5.93;5.20;;;23.50;85.70;;;;;;6208408;28;89421;-67
2023/06/14 10:14:46;;;;;;;5.80;4.88;;;23.40;85.50;;;;;;6208822;28;88689;-66
2023/06/14 10:17:56;;;;;;;5.60;5.00;;;23.40;85.40;;;;;;6208948;28;89067;-67
2023/06/14 10:21:08;;;;;;;5.40;4.90;;;23.40;85.40;;;;;;6207708;28;89645;-67
2023/06/14 10:24:16;;;;;;;5.38;4.88;;;23.40;85.50;;;;;;6209167;28;88569;-67
2023/06/14 10:27:23;;;;;;;5.30;4.80;;;23.40;85.50;;;;;;6207787;28;87643;-67
2023/06/14 10:30:27;;;;;;;5.50;4.70;;;23.40;85.60;;;;;;6208618;28;89155;-66
2023/06/14 10:33:30;;;;;;;4.95;4.47;;;23.40;85.40;;;;;;6194852;28;90077;-67
2023/06/14 10:36:34;;;;;;;4.80;4.30;;;23.40;85.40;;;;;;6205896;28;89011;-66
2023/06/14 10:39:41;;;;;;;5.20;4.70;;;23.40;85.50;;;;;;6195342;28;89270;-67
2023/06/14 10:42:53;;;;;;;5.03;4.53;;;23.40;85.60;;;;;;6203318;28;88945;-67
2023/06/14 10:46:15;;;;;;;5.25;4.75;;;23.40;85.70;;;;;;6200516;28;89079;-67
2023/06/14 10:49:19;;;;;;;5.10;4.60;;;23.40;85.70;;;;;;6207473;28;88968;-67
2023/06/14 10:52:27;;;;;;;4.63;4.22;;;23.40;85.70;;;;;;6203827;28;89090;-67
2023/06/14 10:55:36;;;;;;;4.70;4.30;;;23.40;85.70;;;;;;6208309;28;88018;-67
2023/06/14 10:58:38;;;;;;;5.00;4.50;;;23.40;85.60;;;;;;6205629;28;89458;-67
2023/06/14 11:01:50;;;;;;;5.00;4.60;;;23.40;85.50;;;;;;6205949;28;88606;-67
2023/06/14 11:04:56;;;;;;;4.85;4.32;;;23.40;85.50;;;;;;6206418;28;89980;-67
2023/06/14 11:08:28;;;;;;;4.80;4.40;;;23.40;85.50;;;;;;6204995;28;88772;-67
2023/06/14 11:11:34;;;;;;;4.93;4.53;;;23.40;85.40;;;;;;6204717;28;88977;-67
2023/06/14 11:14:36;;;;;;;4.78;4.38;;;23.40;85.40;;;;;;6203593;28;87059;-67
2023/06/14 11:17:38;;;;;;;5.43;4.38;;;23.40;85.20;;;;;;6206388;28;89023;-67
2023/06/14 11:20:41;;;;;;;5.00;4.50;;;23.40;85.20;;;;;;6205383;28;89124;-69
2023/06/14 11:23:49;;;;;;;4.78;4.38;;;23.40;85.20;;;;;;6203211;28;89147;-68
2023/06/14 11:26:51;;;;;;;5.15;4.30;;;23.40;85.20;;;;;;6207067;28;88630;-68
2023/06/14 11:29:53;;;;;;;5.15;4.65;;;23.40;85.20;;;;;;6206295;28;89197;-68
2023/06/14 11:32:56;;;;;;;4.85;4.35;;;23.40;85.30;;;;;;6189900;28;89148;-69
2023/06/14 11:36:04;;;;;;;4.65;4.25;;;23.40;85.30;;;;;;6202246;28;89751;-68
2023/06/14 11:39:08;;;;;;;4.53;4.13;;;23.40;85.20;;;;;;6205610;28;89028;-68
2023/06/14 11:42:15;;;;;;;4.53;4.13;;;23.40;85.20;;;;;;6200143;28;88903;-68
2023/06/14 11:45:17;;;;;;;4.53;4.10;;;23.40;85.10;;;;;;6206345;28;89316;-69
2023/06/14 11:48:19;;;;;;;4.65;3.90;;;23.40;85.20;;;;;;6198644;28;87665;-69
2023/06/14 11:51:22;;;;;;;5.38;4.63;;;23.40;85.10;;;;;;6206906;28;89052;-68
2023/06/14 11:54:24;;;;;;;5.03;4.53;;;23.50;85.20;;;;;;6205102;28;89648;-68
2023/06/14 11:57:26;;;;;;;4.57;4.18;;;23.40;85.00;;;;;;6207480;28;87189;-68
2023/06/14 12:00:29;;;;;;;4.60;4.20;;;23.40;84.90;;;;;;6205661;28;89526;-68
2023/06/14 12:03:31;;;;;;;4.80;4.30;;;23.40;84.70;;;;;;6206087;28;89149;-69
2023/06/14 12:06:36;;;;;;;4.70;4.10;;;23.40;84.80;;;;;;6192740;28;90332;-69
2023/06/14 12:09:38;;;;;;;4.60;4.10;;;23.40;84.90;;;;;;6204646;28;89388;-69
2023/06/14 12:12:41;;;;;;;4.90;4.50;;;23.40;84.80;;;;;;6197161;28;88146;-68
2023/06/14 12:15:43;;;;;;;4.53;4.13;;;23.40;84.70;;;;;;6193591;28;89356;-68
2023/06/14 12:18:46;;;;;;;4.28;3.88;;;23.40;84.70;;;;;;6205012;28;89135;-68
2023/06/14 12:21:50;;;;;;;4.40;4.00;;;23.40;84.70;;;;;;6205281;28;89022;-69
2023/06/14 12:24:53;;;;;;;4.60;4.20;;;23.40;84.70;;;;;;6202692;28;89100;-68
2023/06/14 12:27:56;;;;;;;5.00;4.22;;;23.40;84.70;;;;;;6197189;28;89303;-69
2023/06/14 12:30:58;;;;;;;5.07;4.53;;;23.40;84.70;;;;;;6207132;28;89061;-68
2023/06/14 12:34:00;;;;;;;4.72;4.30;;;23.40;84.90;;;;;;6206910;28;87608;-68
2023/06/14 12:37:04;;;;;;;4.07;3.67;;;23.40;84.90;;;;;;6203306;28;90057;-68
2023/06/14 12:40:07;;;;;;;5.40;4.43;;;23.40;84.90;;;;;;6204648;28;89022;-68
2023/06/14 12:43:09;;;;;;;4.78;4.28;;;23.40;84.80;;;;;;6195723;28;89123;-68
2023/06/14 12:46:11;;;;;;;4.45;4.00;;;23.40;84.90;;;;;;6195312;28;89087;-69
2023/06/14 12:49:13;;;;;;;3.95;3.65;;;23.40;84.90;;;;;;6206192;28;89453;-69
2023/06/14 12:52:17;;;;;;;4.70;4.07;;;23.40;84.80;;;;;;6187847;28;89095;-69
2023/06/14 12:55:19;;;;;;;4.30;4.00;;;23.40;84.70;;;;;;6193975;28;89322;-69
2023/06/14 12:58:23;;;;;;;4.38;3.97;;;23.40;85.70;;;;;;6210104;28;88182;-68
2023/06/14 13:01:25;;;;;;;4.20;3.80;;;23.40;84.80;;;;;;6195731;28;89255;-68
2023/06/14 13:04:27;;;;;;;4.22;3.83;;;23.40;84.80;;;;;;6208170;28;89161;-69
2023/06/14 13:07:30;;;;;;;4.63;4.00;;;23.40;84.80;;;;;;6207736;28;89921;-68
2023/06/14 13:10:32;;;;;;;4.88;4.18;;;23.40;84.80;;;;;;6206531;28;89190;-68
2023/06/14 13:13:34;;;;;;;4.43;4.00;;;23.40;84.70;;;;;;6202367;28;89151;-69
2023/06/14 13:16:36;;;;;;;4.65;3.90;;;23.40;84.70;;;;;;6210175;28;89162;-68
2023/06/14 13:19:38;;;;;;;4.43;4.03;;;23.40;84.80;;;;;;6208553;28;89103;-68
2023/06/14 13:22:42;;;;;;;4.05;3.75;;;23.40;84.90;;;;;;6209475;28;87968;-69
2023/06/14 13:25:44;;;;;;;4.40;4.00;;;23.40;84.80;;;;;;6207129;28;89068;-69
2023/06/14 13:28:46;;;;;;;4.28;3.88;;;23.40;84.70;;;;;;6210002;28;87264;-68
2023/06/14 13:31:48;;;;;;;4.18;3.78;;;23.40;84.70;;;;;;6200921;28;89103;-68
2023/06/14 13:34:50;;;;;;;4.28;3.88;;;23.40;84.70;;;;;;6208699;28;89073;-69
2023/06/14 13:37:53;;;;;;;4.70;4.22;;;23.40;84.70;;;;;;6209051;28;90937;-68
2023/06/14 13:40:55;;;;;;;4.22;3.83;;;23.40;84.70;;;;;;6209090;28;89171;-69
2023/06/14 13:43:57;;;;;;;4.10;3.70;;;23.50;84.90;;;;;;6196827;28;89139;-69
2023/06/14 13:47:00;;;;;;;4.00;3.70;;;23.40;84.90;;;;;;6208746;28;88036;-69
2023/06/14 13:50:02;;;;;;;3.80;3.50;;;23.40;84.90;;;;;;6208728;28;89170;-69
2023/06/14 13:53:06;;;;;;;3.95;3.65;;;23.40;84.70;;;;;;6208271;28;89031;-69
2023/06/14 13:56:08;;;;;;;4.20;3.80;;;23.40;84.60;;;;;;6195882;28;87998;-69
2023/06/14 13:59:10;;;;;;;5.10;4.07;;;23.40;84.70;;;;;;6208561;28;88329;-69
2023/06/14 14:02:13;;;;;;;5.13;4.05;;;23.40;84.70;;;;;;6208473;28;89241;-69
2023/06/14 14:05:15;;;;;;;4.35;3.95;;;23.40;84.70;;;;;;6203091;28;89250;-69
2023/06/14 14:08:18;;;;;;;4.75;3.50;;;23.40;84.70;;;;;;6208312;28;90122;-69
2023/06/14 14:11:21;;;;;;;4.15;3.78;;;23.40;84.70;;;;;;6209246;28;89391;-70
2023/06/14 14:14:23;;;;;;;3.75;3.45;;;23.40;85.50;;;;;;6208994;28;89244;-69
2023/06/14 14:17:26;;;;;;;4.22;3.83;;;23.40;84.70;;;;;;6208271;28;89097;-69
2023/06/14 14:20:32;;;;;;;4.13;3.72;;;23.40;84.80;;;;;;6202149;28;89184;-69
2023/06/14 14:23:35;;;;;;;4.28;3.90;;;23.50;84.90;;;;;;6201553;28;89015;-69
2023/06/14 14:26:37;;;;;;;4.10;3.70;;;23.40;84.70;;;;;;6195634;28;89260;-69
2023/06/14 14:29:39;;;;;;;3.75;3.45;;;23.40;85.70;;;;;;6209277;28;88336;-69
2023/06/14 14:32:41;;;;;;;4.82;4.00;;;23.40;84.70;;;;;;6206132;28;89000;-69
2023/06/14 14:35:44;;;;;;;4.10;3.70;;;23.50;84.70;;;;;;6207890;28;88342;-69
2023/06/14 14:38:48;;;;;;;3.53;3.22;;;23.40;84.60;;;;;;6202900;28;90050;-69
2023/06/14 14:41:51;;;;;;;3.65;3.30;;;23.50;84.80;;;;;;6208320;28;88076;-69
2023/06/14 14:44:53;;;;;;;3.90;3.50;;;23.40;84.70;;;;;;6204468;28;89132;-69
2023/06/14 14:47:55;;;;;;;4.25;3.85;;;23.40;84.70;;;;;;6195254;28;89019;-69
2023/06/14 14:50:57;;;;;;;3.90;3.60;;;23.40;84.70;;;;;;6207262;28;89874;-69
2023/06/14 14:54:00;;;;;;;3.90;3.50;;;23.40;84.80;;;;;;6194896;28;88967;-69
2023/06/14 14:57:02;;;;;;;3.78;3.47;;;23.40;84.70;;;;;;6208030;28;88387;-69
2023/06/14 15:00:05;;;;;;;3.67;3.38;;;23.50;84.90;;;;;;6206771;28;88225;-69
2023/06/14 15:03:07;;;;;;;3.38;3.08;;;23.40;84.80;;;;;;6206341;28;87874;-69
2023/06/14 15:06:09;;;;;;;3.65;3.35;;;23.40;84.80;;;;;;6206302;28;88384;-69
2023/06/14 15:09:12;;;;;;;3.65;3.35;;;23.40;84.70;;;;;;6197671;28;90310;-69
2023/06/14 15:12:14;;;;;;;3.83;3.53;;;23.40;84.80;;;;;;6198258;28;89080;-70
2023/06/14 15:15:17;;;;;;;3.67;3.38;;;23.50;84.70;;;;;;6207491;28;89356;-69
2023/06/14 15:18:20;;;;;;;4.07;3.47;;;23.40;84.50;;;;;;6207895;28;87962;-70
2023/06/14 15:21:22;;;;;;;4.13;3.72;;;23.40;84.60;;;;;;6197252;28;89109;-70
2023/06/14 15:24:25;;;;;;;3.70;3.40;;;23.40;84.60;;;;;;6205714;28;89040;-69
2023/06/14 15:27:28;;;;;;;3.78;3.47;;;23.50;84.60;;;;;;6205037;28;89025;-69
2023/06/14 15:30:30;;;;;;;3.72;3.42;;;23.50;84.50;;;;;;6207557;28;88461;-69
2023/06/14 15:33:32;;;;;;;4.15;3.75;;;23.40;84.50;;;;;;6206325;28;89155;-69
2023/06/14 15:36:35;;;;;;;3.70;3.28;;;23.40;84.50;;;;;;6204401;28;89063;-69
2023/06/14 15:39:38;;;;;;;3.75;3.38;;;23.40;84.50;;;;;;6206165;28;89991;-69
2023/06/14 15:42:40;;;;;;;3.65;3.35;;;23.40;84.50;;;;;;6206817;28;91521;-69
2023/06/14 15:45:43;;;;;;;3.67;3.38;;;23.50;84.50;;;;;;6206643;28;89352;-69
2023/06/14 15:48:45;;;;;;;4.18;3.78;;;23.40;84.50;;;;;;6206064;28;89307;-69
2023/06/14 15:51:47;;;;;;;4.00;3.53;;;23.40;84.50;;;;;;6199975;28;89439;-69
2023/06/14 15:54:50;;;;;;;3.72;3.42;;;23.40;84.40;;;;;;6199803;28;89218;-69